sensor_id;sensor_type;location;lat;lon;timestamp;P1;durP1;ratioP1;P2;durP2;ratioP2
32032;SDS011;31720;52.638;9.216;2023-12-20T00:02:30;5.55;;;1.60;;
32032;SDS011;31720;52.638;9.216;2023-12-20T00:05:32;9.27;;;1.55;;
32032;SDS011;31720;52.638;9.216;2023-12-20T00:08:33;5.30;;;2.35;;
32032;SDS011;31720;52.638;9.216;2023-12-20T00:11:36;3.10;;;1.27;;
32032;SDS011;31720;52.638;9.216;2023-12-20T00:14:37;4.95;;;1.02;;
32032;SDS011;31720;52.638;9.216;2023-12-20T00:17:38;4.38;;;1.40;;
32032;SDS011;31720;52.638;9.216;2023-12-20T00:20:40;2.50;;;1.27;;
32032;SDS011;31720;52.638;9.216;2023-12-20T00:23:41;3.70;;;1.48;;
32032;SDS011;31720;52.638;9.216;2023-12-20T00:26:44;3.90;;;0.82;;
32032;SDS011;31720;52.638;9.216;2023-12-20T00:29:45;4.43;;;1.15;;
32032;SDS011;31720;52.638;9.216;2023-12-20T00:32:49;11.77;;;1.15;;
32032;SDS011;31720;52.638;9.216;2023-12-20T00:35:51;9.85;;;1.42;;
32032;SDS011;31720;52.638;9.216;2023-12-20T00:38:52;10.30;;;1.17;;
32032;SDS011;31720;52.638;9.216;2023-12-20T00:41:55;11.02;;;1.83;;
32032;SDS011;31720;52.638;9.216;2023-12-20T00:44:56;3.95;;;1.38;;
32032;SDS011;31720;52.638;9.216;2023-12-20T00:47:57;8.18;;;1.10;;
32032;SDS011;31720;52.638;9.216;2023-12-20T00:50:59;4.32;;;1.23;;
32032;SDS011;31720;52.638;9.216;2023-12-20T00:54:01;6.57;;;1.20;;
32032;SDS011;31720;52.638;9.216;2023-12-20T00:57:04;1.85;;;0.95;;
32032;SDS011;31720;52.638;9.216;2023-12-20T01:00:06;11.57;;;1.35;;
32032;SDS011;31720;52.638;9.216;2023-12-20T01:03:09;11.25;;;1.27;;
32032;SDS011;31720;52.638;9.216;2023-12-20T01:06:11;9.68;;;1.73;;
32032;SDS011;31720;52.638;9.216;2023-12-20T01:09:12;7.70;;;0.95;;
32032;SDS011;31720;52.638;9.216;2023-12-20T01:12:15;5.38;;;1.23;;
32032;SDS011;31720;52.638;9.216;2023-12-20T01:15:17;10.70;;;1.65;;
32032;SDS011;31720;52.638;9.216;2023-12-20T01:18:18;7.13;;;1.23;;
32032;SDS011;31720;52.638;9.216;2023-12-20T01:21:19;7.43;;;1.40;;
32032;SDS011;31720;52.638;9.216;2023-12-20T01:24:21;7.45;;;1.00;;
32032;SDS011;31720;52.638;9.216;2023-12-20T01:27:23;7.53;;;1.23;;
32032;SDS011;31720;52.638;9.216;2023-12-20T01:30:25;3.95;;;1.17;;
32032;SDS011;31720;52.638;9.216;2023-12-20T01:33:26;11.15;;;1.55;;
32032;SDS011;31720;52.638;9.216;2023-12-20T01:36:27;8.73;;;1.58;;
32032;SDS011;31720;52.638;9.216;2023-12-20T01:39:29;7.28;;;1.55;;
32032;SDS011;31720;52.638;9.216;2023-12-20T01:42:31;4.88;;;0.90;;
32032;SDS011;31720;52.638;9.216;2023-12-20T01:45:33;8.65;;;2.60;;
32032;SDS011;31720;52.638;9.216;2023-12-20T01:48:34;14.38;;;2.28;;
32032;SDS011;31720;52.638;9.216;2023-12-20T01:51:36;7.20;;;2.30;;
32032;SDS011;31720;52.638;9.216;2023-12-20T01:54:38;7.57;;;1.05;;
32032;SDS011;31720;52.638;9.216;2023-12-20T01:57:42;5.15;;;1.25;;
32032;SDS011;31720;52.638;9.216;2023-12-20T02:00:44;2.55;;;1.02;;
32032;SDS011;31720;52.638;9.216;2023-12-20T02:03:45;11.45;;;1.58;;
32032;SDS011;31720;52.638;9.216;2023-12-20T02:06:47;3.30;;;1.40;;
32032;SDS011;31720;52.638;9.216;2023-12-20T02:09:53;10.35;;;1.40;;
32032;SDS011;31720;52.638;9.216;2023-12-20T02:12:55;10.93;;;1.92;;
32032;SDS011;31720;52.638;9.216;2023-12-20T02:15:57;7.72;;;1.30;;
32032;SDS011;31720;52.638;9.216;2023-12-20T02:18:58;9.25;;;1.02;;
32032;SDS011;31720;52.638;9.216;2023-12-20T02:22:08;8.60;;;1.15;;
32032;SDS011;31720;52.638;9.216;2023-12-20T02:25:10;4.95;;;1.77;;
32032;SDS011;31720;52.638;9.216;2023-12-20T02:28:11;3.75;;;1.00;;
32032;SDS011;31720;52.638;9.216;2023-12-20T02:31:13;9.07;;;1.52;;
32032;SDS011;31720;52.638;9.216;2023-12-20T02:34:14;3.00;;;1.10;;
32032;SDS011;31720;52.638;9.216;2023-12-20T02:37:16;3.50;;;0.98;;
32032;SDS011;31720;52.638;9.216;2023-12-20T02:40:18;2.83;;;1.00;;
32032;SDS011;31720;52.638;9.216;2023-12-20T02:43:19;3.80;;;1.17;;
32032;SDS011;31720;52.638;9.216;2023-12-20T02:46:20;3.92;;;1.17;;
32032;SDS011;31720;52.638;9.216;2023-12-20T02:49:22;9.30;;;1.38;;
32032;SDS011;31720;52.638;9.216;2023-12-20T02:52:25;3.50;;;1.30;;
32032;SDS011;31720;52.638;9.216;2023-12-20T02:55:27;6.88;;;1.00;;
32032;SDS011;31720;52.638;9.216;2023-12-20T02:58:28;7.65;;;1.30;;
32032;SDS011;31720;52.638;9.216;2023-12-20T03:01:29;9.13;;;1.40;;
32032;SDS011;31720;52.638;9.216;2023-12-20T03:04:30;2.20;;;1.25;;
32032;SDS011;31720;52.638;9.216;2023-12-20T03:07:33;3.33;;;1.35;;
32032;SDS011;31720;52.638;9.216;2023-12-20T03:10:34;8.48;;;1.08;;
32032;SDS011;31720;52.638;9.216;2023-12-20T03:13:36;6.85;;;1.63;;
32032;SDS011;31720;52.638;9.216;2023-12-20T03:16:37;3.08;;;1.35;;
32032;SDS011;31720;52.638;9.216;2023-12-20T03:19:38;6.90;;;1.63;;
32032;SDS011;31720;52.638;9.216;2023-12-20T03:22:41;5.18;;;1.70;;
32032;SDS011;31720;52.638;9.216;2023-12-20T03:25:42;5.95;;;1.77;;
32032;SDS011;31720;52.638;9.216;2023-12-20T03:28:44;3.90;;;1.75;;
32032;SDS011;31720;52.638;9.216;2023-12-20T03:31:45;8.25;;;1.77;;
32032;SDS011;31720;52.638;9.216;2023-12-20T03:34:46;5.35;;;1.63;;
32032;SDS011;31720;52.638;9.216;2023-12-20T03:37:49;9.52;;;1.27;;
32032;SDS011;31720;52.638;9.216;2023-12-20T03:40:51;3.15;;;1.30;;
32032;SDS011;31720;52.638;9.216;2023-12-20T03:43:52;10.27;;;1.70;;
32032;SDS011;31720;52.638;9.216;2023-12-20T03:46:54;11.45;;;1.90;;
32032;SDS011;31720;52.638;9.216;2023-12-20T03:49:55;8.70;;;2.50;;
32032;SDS011;31720;52.638;9.216;2023-12-20T03:52:58;5.30;;;1.65;;
32032;SDS011;31720;52.638;9.216;2023-12-20T03:55:59;9.50;;;1.95;;
32032;SDS011;31720;52.638;9.216;2023-12-20T03:59:00;7.55;;;1.33;;
32032;SDS011;31720;52.638;9.216;2023-12-20T04:02:02;4.03;;;1.50;;
32032;SDS011;31720;52.638;9.216;2023-12-20T04:05:03;4.63;;;1.70;;
32032;SDS011;31720;52.638;9.216;2023-12-20T04:08:07;4.30;;;1.70;;
32032;SDS011;31720;52.638;9.216;2023-12-20T04:11:08;5.22;;;2.00;;
32032;SDS011;31720;52.638;9.216;2023-12-20T04:14:10;7.78;;;1.77;;
32032;SDS011;31720;52.638;9.216;2023-12-20T04:17:11;7.00;;;1.70;;
32032;SDS011;31720;52.638;9.216;2023-12-20T04:20:13;11.02;;;2.60;;
32032;SDS011;31720;52.638;9.216;2023-12-20T04:23:15;9.52;;;1.90;;
32032;SDS011;31720;52.638;9.216;2023-12-20T04:26:17;16.17;;;2.15;;
32032;SDS011;31720;52.638;9.216;2023-12-20T04:29:18;10.13;;;1.85;;
32032;SDS011;31720;52.638;9.216;2023-12-20T04:32:19;11.02;;;2.97;;
32032;SDS011;31720;52.638;9.216;2023-12-20T04:35:20;11.32;;;1.98;;
32032;SDS011;31720;52.638;9.216;2023-12-20T04:38:23;6.20;;;1.58;;
32032;SDS011;31720;52.638;9.216;2023-12-20T04:41:24;12.60;;;1.95;;
32032;SDS011;31720;52.638;9.216;2023-12-20T04:44:27;5.45;;;1.60;;
32032;SDS011;31720;52.638;9.216;2023-12-20T04:47:28;14.63;;;2.50;;
32032;SDS011;31720;52.638;9.216;2023-12-20T04:50:30;9.68;;;2.25;;
32032;SDS011;31720;52.638;9.216;2023-12-20T04:53:32;10.02;;;1.85;;
32032;SDS011;31720;52.638;9.216;2023-12-20T04:56:34;5.32;;;1.80;;
32032;SDS011;31720;52.638;9.216;2023-12-20T04:59:35;3.92;;;1.83;;
32032;SDS011;31720;52.638;9.216;2023-12-20T05:02:36;15.80;;;2.08;;
32032;SDS011;31720;52.638;9.216;2023-12-20T05:05:38;10.68;;;2.35;;
32032;SDS011;31720;52.638;9.216;2023-12-20T05:08:41;12.10;;;2.30;;
32032;SDS011;31720;52.638;9.216;2023-12-20T05:11:42;8.75;;;1.92;;
32032;SDS011;31720;52.638;9.216;2023-12-20T05:14:43;15.13;;;2.30;;
32032;SDS011;31720;52.638;9.216;2023-12-20T05:17:45;10.13;;;2.60;;
32032;SDS011;31720;52.638;9.216;2023-12-20T05:20:46;9.10;;;2.00;;
32032;SDS011;31720;52.638;9.216;2023-12-20T05:23:49;14.85;;;2.08;;
32032;SDS011;31720;52.638;9.216;2023-12-20T05:26:50;10.02;;;2.72;;
32032;SDS011;31720;52.638;9.216;2023-12-20T05:29:52;8.35;;;1.67;;
32032;SDS011;31720;52.638;9.216;2023-12-20T05:32:57;10.43;;;1.73;;
32032;SDS011;31720;52.638;9.216;2023-12-20T05:35:58;11.32;;;2.00;;
32032;SDS011;31720;52.638;9.216;2023-12-20T05:39:01;12.25;;;2.47;;
32032;SDS011;31720;52.638;9.216;2023-12-20T05:42:03;10.63;;;2.38;;
32032;SDS011;31720;52.638;9.216;2023-12-20T05:45:05;8.10;;;2.05;;
32032;SDS011;31720;52.638;9.216;2023-12-20T05:48:07;15.55;;;2.40;;
32032;SDS011;31720;52.638;9.216;2023-12-20T05:51:10;9.48;;;2.95;;
32032;SDS011;31720;52.638;9.216;2023-12-20T05:54:13;12.27;;;1.70;;
32032;SDS011;31720;52.638;9.216;2023-12-20T05:57:15;8.68;;;2.17;;
32032;SDS011;31720;52.638;9.216;2023-12-20T06:00:16;14.82;;;2.10;;
32032;SDS011;31720;52.638;9.216;2023-12-20T06:03:18;11.60;;;1.88;;
32032;SDS011;31720;52.638;9.216;2023-12-20T06:06:19;7.20;;;2.10;;
32032;SDS011;31720;52.638;9.216;2023-12-20T06:09:22;6.95;;;1.77;;
32032;SDS011;31720;52.638;9.216;2023-12-20T06:12:24;8.48;;;2.00;;
32032;SDS011;31720;52.638;9.216;2023-12-20T06:15:26;11.45;;;1.50;;
32032;SDS011;31720;52.638;9.216;2023-12-20T06:18:28;12.05;;;2.03;;
32032;SDS011;31720;52.638;9.216;2023-12-20T06:21:29;7.95;;;1.92;;
32032;SDS011;31720;52.638;9.216;2023-12-20T06:24:32;8.13;;;1.55;;
32032;SDS011;31720;52.638;9.216;2023-12-20T06:27:34;10.05;;;2.20;;
32032;SDS011;31720;52.638;9.216;2023-12-20T06:30:35;12.75;;;2.35;;
32032;SDS011;31720;52.638;9.216;2023-12-20T06:33:37;14.38;;;2.25;;
32032;SDS011;31720;52.638;9.216;2023-12-20T06:36:40;14.07;;;2.22;;
32032;SDS011;31720;52.638;9.216;2023-12-20T06:39:43;9.05;;;1.98;;
32032;SDS011;31720;52.638;9.216;2023-12-20T06:42:44;9.38;;;2.53;;
32032;SDS011;31720;52.638;9.216;2023-12-20T06:45:46;9.10;;;1.80;;
32032;SDS011;31720;52.638;9.216;2023-12-20T06:48:48;23.45;;;2.65;;
32032;SDS011;31720;52.638;9.216;2023-12-20T06:51:49;12.70;;;2.33;;
32032;SDS011;31720;52.638;9.216;2023-12-20T06:54:51;13.45;;;2.10;;
32032;SDS011;31720;52.638;9.216;2023-12-20T06:57:53;6.32;;;2.22;;
32032;SDS011;31720;52.638;9.216;2023-12-20T07:00:55;10.63;;;2.17;;
32032;SDS011;31720;52.638;9.216;2023-12-20T07:03:56;21.80;;;1.60;;
32032;SDS011;31720;52.638;9.216;2023-12-20T07:06:57;17.73;;;2.30;;
32032;SDS011;31720;52.638;9.216;2023-12-20T07:10:01;7.93;;;2.53;;
32032;SDS011;31720;52.638;9.216;2023-12-20T07:13:03;21.15;;;2.78;;
32032;SDS011;31720;52.638;9.216;2023-12-20T07:16:05;6.15;;;2.17;;
32032;SDS011;31720;52.638;9.216;2023-12-20T07:19:06;4.13;;;1.55;;
32032;SDS011;31720;52.638;9.216;2023-12-20T07:22:08;16.40;;;2.47;;
32032;SDS011;31720;52.638;9.216;2023-12-20T07:25:11;12.55;;;1.83;;
32032;SDS011;31720;52.638;9.216;2023-12-20T07:28:12;6.30;;;1.88;;
32032;SDS011;31720;52.638;9.216;2023-12-20T07:31:15;8.77;;;1.88;;
32032;SDS011;31720;52.638;9.216;2023-12-20T07:34:16;10.45;;;2.00;;
32032;SDS011;31720;52.638;9.216;2023-12-20T07:37:18;20.27;;;2.05;;
32032;SDS011;31720;52.638;9.216;2023-12-20T07:40:20;9.15;;;1.75;;
32032;SDS011;31720;52.638;9.216;2023-12-20T07:43:23;9.50;;;1.83;;
32032;SDS011;31720;52.638;9.216;2023-12-20T07:46:25;8.30;;;2.05;;
32032;SDS011;31720;52.638;9.216;2023-12-20T07:49:26;13.70;;;1.92;;
32032;SDS011;31720;52.638;9.216;2023-12-20T07:52:27;16.85;;;2.08;;
32032;SDS011;31720;52.638;9.216;2023-12-20T07:55:30;9.30;;;1.75;;
32032;SDS011;31720;52.638;9.216;2023-12-20T07:58:32;8.70;;;2.00;;
32032;SDS011;31720;52.638;9.216;2023-12-20T08:01:33;13.43;;;2.30;;
32032;SDS011;31720;52.638;9.216;2023-12-20T08:04:34;10.25;;;1.95;;
32032;SDS011;31720;52.638;9.216;2023-12-20T08:07:36;9.13;;;2.70;;
32032;SDS011;31720;52.638;9.216;2023-12-20T08:10:38;14.35;;;2.05;;
32032;SDS011;31720;52.638;9.216;2023-12-20T08:13:40;10.77;;;1.42;;
32032;SDS011;31720;52.638;9.216;2023-12-20T08:16:41;11.02;;;1.60;;
32032;SDS011;31720;52.638;9.216;2023-12-20T08:19:42;17.75;;;2.13;;
32032;SDS011;31720;52.638;9.216;2023-12-20T08:22:44;14.88;;;2.20;;
32032;SDS011;31720;52.638;9.216;2023-12-20T08:25:47;12.50;;;2.25;;
32032;SDS011;31720;52.638;9.216;2023-12-20T08:28:49;9.35;;;2.53;;
32032;SDS011;31720;52.638;9.216;2023-12-20T08:31:52;12.77;;;2.33;;
32032;SDS011;31720;52.638;9.216;2023-12-20T08:34:53;15.52;;;2.75;;
32032;SDS011;31720;52.638;9.216;2023-12-20T08:37:56;10.57;;;2.78;;
32032;SDS011;31720;52.638;9.216;2023-12-20T08:40:58;10.23;;;2.10;;
32032;SDS011;31720;52.638;9.216;2023-12-20T08:44:01;12.43;;;2.17;;
32032;SDS011;31720;52.638;9.216;2023-12-20T08:47:02;11.07;;;2.20;;
32032;SDS011;31720;52.638;9.216;2023-12-20T08:50:04;12.85;;;1.85;;
32032;SDS011;31720;52.638;9.216;2023-12-20T08:53:07;12.88;;;2.38;;
32032;SDS011;31720;52.638;9.216;2023-12-20T08:56:09;10.77;;;2.40;;
32032;SDS011;31720;52.638;9.216;2023-12-20T08:59:11;15.65;;;3.08;;
32032;SDS011;31720;52.638;9.216;2023-12-20T09:02:12;9.80;;;1.95;;
32032;SDS011;31720;52.638;9.216;2023-12-20T09:05:14;13.07;;;3.25;;
32032;SDS011;31720;52.638;9.216;2023-12-20T09:08:15;11.40;;;2.13;;
32032;SDS011;31720;52.638;9.216;2023-12-20T09:11:18;8.77;;;2.30;;
32032;SDS011;31720;52.638;9.216;2023-12-20T09:14:19;9.55;;;2.10;;
32032;SDS011;31720;52.638;9.216;2023-12-20T09:17:20;10.48;;;2.03;;
32032;SDS011;31720;52.638;9.216;2023-12-20T09:20:22;23.23;;;2.42;;
32032;SDS011;31720;52.638;9.216;2023-12-20T09:23:24;15.35;;;2.55;;
32032;SDS011;31720;52.638;9.216;2023-12-20T09:26:27;22.25;;;2.58;;
32032;SDS011;31720;52.638;9.216;2023-12-20T09:29:28;9.18;;;2.35;;
32032;SDS011;31720;52.638;9.216;2023-12-20T09:32:30;13.30;;;2.13;;
32032;SDS011;31720;52.638;9.216;2023-12-20T09:35:31;16.05;;;1.95;;
32032;SDS011;31720;52.638;9.216;2023-12-20T09:38:33;20.95;;;1.98;;
32032;SDS011;31720;52.638;9.216;2023-12-20T09:41:36;6.40;;;1.70;;
32032;SDS011;31720;52.638;9.216;2023-12-20T09:44:41;15.70;;;1.98;;
32032;SDS011;31720;52.638;9.216;2023-12-20T09:47:44;14.48;;;1.90;;
32032;SDS011;31720;52.638;9.216;2023-12-20T09:50:46;6.55;;;1.90;;
32032;SDS011;31720;52.638;9.216;2023-12-20T09:53:48;17.55;;;1.90;;
32032;SDS011;31720;52.638;9.216;2023-12-20T09:56:51;6.90;;;1.45;;
32032;SDS011;31720;52.638;9.216;2023-12-20T09:59:52;10.13;;;1.52;;
32032;SDS011;31720;52.638;9.216;2023-12-20T10:02:56;20.40;;;2.55;;
32032;SDS011;31720;52.638;9.216;2023-12-20T10:05:58;12.90;;;1.60;;
32032;SDS011;31720;52.638;9.216;2023-12-20T10:09:01;9.95;;;1.65;;
32032;SDS011;31720;52.638;9.216;2023-12-20T10:12:04;9.20;;;2.15;;
32032;SDS011;31720;52.638;9.216;2023-12-20T10:15:07;10.90;;;2.33;;
32032;SDS011;31720;52.638;9.216;2023-12-20T10:18:11;10.30;;;1.58;;
32032;SDS011;31720;52.638;9.216;2023-12-20T10:21:13;8.73;;;2.03;;
32032;SDS011;31720;52.638;9.216;2023-12-20T10:24:16;5.45;;;2.20;;
32032;SDS011;31720;52.638;9.216;2023-12-20T10:27:20;6.88;;;1.65;;
32032;SDS011;31720;52.638;9.216;2023-12-20T10:30:21;13.82;;;3.75;;
32032;SDS011;31720;52.638;9.216;2023-12-20T10:33:23;11.88;;;2.15;;
32032;SDS011;31720;52.638;9.216;2023-12-20T10:36:26;6.45;;;1.88;;
32032;SDS011;31720;52.638;9.216;2023-12-20T10:39:28;12.40;;;1.67;;
32032;SDS011;31720;52.638;9.216;2023-12-20T10:42:33;6.95;;;2.05;;
32032;SDS011;31720;52.638;9.216;2023-12-20T10:45:36;13.30;;;1.60;;
32032;SDS011;31720;52.638;9.216;2023-12-20T10:48:37;9.57;;;2.22;;
32032;SDS011;31720;52.638;9.216;2023-12-20T10:51:40;4.45;;;1.35;;
32032;SDS011;31720;52.638;9.216;2023-12-20T10:54:42;13.55;;;1.50;;
32032;SDS011;31720;52.638;9.216;2023-12-20T10:57:45;10.30;;;1.40;;
32032;SDS011;31720;52.638;9.216;2023-12-20T11:00:50;5.07;;;0.73;;
32032;SDS011;31720;52.638;9.216;2023-12-20T11:03:59;3.60;;;1.10;;
32032;SDS011;31720;52.638;9.216;2023-12-20T11:07:04;4.85;;;1.20;;
32032;SDS011;31720;52.638;9.216;2023-12-20T11:10:17;4.03;;;0.95;;
32032;SDS011;31720;52.638;9.216;2023-12-20T11:13:26;4.82;;;0.70;;
32032;SDS011;31720;52.638;9.216;2023-12-20T11:16:32;3.95;;;0.50;;
32032;SDS011;31720;52.638;9.216;2023-12-20T11:19:35;4.68;;;1.30;;
32032;SDS011;31720;52.638;9.216;2023-12-20T11:22:37;5.38;;;1.02;;
32032;SDS011;31720;52.638;9.216;2023-12-20T11:25:45;3.80;;;1.05;;
32032;SDS011;31720;52.638;9.216;2023-12-20T11:28:54;3.30;;;0.77;;
32032;SDS011;31720;52.638;9.216;2023-12-20T11:32:28;3.38;;;0.70;;
32032;SDS011;31720;52.638;9.216;2023-12-20T11:35:30;5.85;;;0.68;;
32032;SDS011;31720;52.638;9.216;2023-12-20T11:38:35;3.28;;;0.60;;
32032;SDS011;31720;52.638;9.216;2023-12-20T11:41:37;1.73;;;0.80;;
32032;SDS011;31720;52.638;9.216;2023-12-20T11:44:39;2.50;;;0.52;;
32032;SDS011;31720;52.638;9.216;2023-12-20T11:47:45;1.60;;;0.30;;
32032;SDS011;31720;52.638;9.216;2023-12-20T11:50:49;2.63;;;0.95;;
32032;SDS011;31720;52.638;9.216;2023-12-20T11:53:51;0.70;;;0.43;;
32032;SDS011;31720;52.638;9.216;2023-12-20T11:56:53;1.30;;;0.35;;
32032;SDS011;31720;52.638;9.216;2023-12-20T11:59:56;1.42;;;0.43;;
32032;SDS011;31720;52.638;9.216;2023-12-20T12:02:58;4.55;;;0.40;;
32032;SDS011;31720;52.638;9.216;2023-12-20T12:06:00;0.65;;;0.30;;
32032;SDS011;31720;52.638;9.216;2023-12-20T12:09:02;3.20;;;0.50;;
32032;SDS011;31720;52.638;9.216;2023-12-20T12:12:05;5.18;;;0.43;;
32032;SDS011;31720;52.638;9.216;2023-12-20T12:15:08;1.98;;;0.60;;
32032;SDS011;31720;52.638;9.216;2023-12-20T12:18:10;1.38;;;0.40;;
32032;SDS011;31720;52.638;9.216;2023-12-20T12:21:18;1.67;;;0.38;;
32032;SDS011;31720;52.638;9.216;2023-12-20T12:24:20;4.22;;;0.70;;
32032;SDS011;31720;52.638;9.216;2023-12-20T12:27:22;6.18;;;0.77;;
32032;SDS011;31720;52.638;9.216;2023-12-20T12:30:25;4.32;;;0.68;;
32032;SDS011;31720;52.638;9.216;2023-12-20T12:33:27;4.13;;;0.40;;
32032;SDS011;31720;52.638;9.216;2023-12-20T12:36:29;0.75;;;0.40;;
32032;SDS011;31720;52.638;9.216;2023-12-20T12:39:31;0.77;;;0.40;;
32032;SDS011;31720;52.638;9.216;2023-12-20T12:42:32;4.78;;;0.68;;
32032;SDS011;31720;52.638;9.216;2023-12-20T12:45:35;0.90;;;0.22;;
32032;SDS011;31720;52.638;9.216;2023-12-20T12:48:36;3.78;;;0.50;;
32032;SDS011;31720;52.638;9.216;2023-12-20T12:51:38;5.68;;;0.35;;
32032;SDS011;31720;52.638;9.216;2023-12-20T12:54:39;2.08;;;0.35;;
32032;SDS011;31720;52.638;9.216;2023-12-20T12:57:41;6.00;;;0.60;;
32032;SDS011;31720;52.638;9.216;2023-12-20T13:00:45;3.58;;;0.55;;
32032;SDS011;31720;52.638;9.216;2023-12-20T13:03:46;3.70;;;0.57;;
32032;SDS011;31720;52.638;9.216;2023-12-20T13:06:48;3.30;;;0.55;;
32032;SDS011;31720;52.638;9.216;2023-12-20T13:09:50;4.20;;;0.75;;
32032;SDS011;31720;52.638;9.216;2023-12-20T13:12:51;2.72;;;0.68;;
32032;SDS011;31720;52.638;9.216;2023-12-20T13:15:54;6.88;;;0.88;;
32032;SDS011;31720;52.638;9.216;2023-12-20T13:18:56;3.38;;;0.45;;
32032;SDS011;31720;52.638;9.216;2023-12-20T13:22:00;7.93;;;1.10;;
32032;SDS011;31720;52.638;9.216;2023-12-20T13:25:01;0.98;;;0.68;;
32032;SDS011;31720;52.638;9.216;2023-12-20T13:28:03;1.15;;;0.30;;
32032;SDS011;31720;52.638;9.216;2023-12-20T13:31:07;6.32;;;1.00;;
32032;SDS011;31720;52.638;9.216;2023-12-20T13:34:08;3.72;;;1.55;;
32032;SDS011;31720;52.638;9.216;2023-12-20T13:37:09;8.80;;;1.05;;
32032;SDS011;31720;52.638;9.216;2023-12-20T13:40:11;3.33;;;0.50;;
32032;SDS011;31720;52.638;9.216;2023-12-20T13:43:13;4.05;;;0.57;;
32032;SDS011;31720;52.638;9.216;2023-12-20T13:46:18;1.75;;;0.47;;
32032;SDS011;31720;52.638;9.216;2023-12-20T13:49:19;3.55;;;1.00;;
32032;SDS011;31720;52.638;9.216;2023-12-20T13:52:21;8.00;;;1.00;;
32032;SDS011;31720;52.638;9.216;2023-12-20T13:55:22;5.00;;;0.85;;
32032;SDS011;31720;52.638;9.216;2023-12-20T13:58:25;8.70;;;1.13;;
32032;SDS011;31720;52.638;9.216;2023-12-20T14:01:28;3.42;;;0.68;;
32032;SDS011;31720;52.638;9.216;2023-12-20T14:04:29;3.63;;;0.63;;
32032;SDS011;31720;52.638;9.216;2023-12-20T14:07:31;3.28;;;0.65;;
32032;SDS011;31720;52.638;9.216;2023-12-20T14:10:32;4.68;;;1.55;;
32032;SDS011;31720;52.638;9.216;2023-12-20T14:13:34;3.42;;;0.73;;
32032;SDS011;31720;52.638;9.216;2023-12-20T14:16:36;3.53;;;1.17;;
32032;SDS011;31720;52.638;9.216;2023-12-20T14:19:38;4.13;;;0.98;;
32032;SDS011;31720;52.638;9.216;2023-12-20T14:22:40;3.45;;;0.40;;
32032;SDS011;31720;52.638;9.216;2023-12-20T14:25:43;8.35;;;0.60;;
32032;SDS011;31720;52.638;9.216;2023-12-20T14:28:45;3.97;;;0.90;;
32032;SDS011;31720;52.638;9.216;2023-12-20T14:31:47;8.80;;;1.25;;
32032;SDS011;31720;52.638;9.216;2023-12-20T14:34:49;2.55;;;0.73;;
32032;SDS011;31720;52.638;9.216;2023-12-20T14:37:51;4.28;;;0.90;;
32032;SDS011;31720;52.638;9.216;2023-12-20T14:40:53;6.60;;;0.82;;
32032;SDS011;31720;52.638;9.216;2023-12-20T14:43:55;12.40;;;1.92;;
32032;SDS011;31720;52.638;9.216;2023-12-20T14:46:57;2.13;;;0.80;;
32032;SDS011;31720;52.638;9.216;2023-12-20T14:50:02;3.65;;;0.90;;
32032;SDS011;31720;52.638;9.216;2023-12-20T14:53:04;3.05;;;0.47;;
32032;SDS011;31720;52.638;9.216;2023-12-20T14:56:05;3.45;;;0.80;;
32032;SDS011;31720;52.638;9.216;2023-12-20T14:59:07;3.15;;;0.73;;
32032;SDS011;31720;52.638;9.216;2023-12-20T15:02:10;7.18;;;1.58;;
32032;SDS011;31720;52.638;9.216;2023-12-20T15:05:12;4.55;;;1.08;;
32032;SDS011;31720;52.638;9.216;2023-12-20T15:08:14;5.60;;;1.02;;
32032;SDS011;31720;52.638;9.216;2023-12-20T15:11:15;4.13;;;1.58;;
32032;SDS011;31720;52.638;9.216;2023-12-20T15:14:17;3.58;;;0.93;;
32032;SDS011;31720;52.638;9.216;2023-12-20T15:17:21;5.78;;;0.60;;
32032;SDS011;31720;52.638;9.216;2023-12-20T15:20:22;3.78;;;0.68;;
32032;SDS011;31720;52.638;9.216;2023-12-20T15:23:23;7.15;;;1.30;;
32032;SDS011;31720;52.638;9.216;2023-12-20T15:26:26;5.78;;;1.08;;
32032;SDS011;31720;52.638;9.216;2023-12-20T15:29:29;2.63;;;0.98;;
32032;SDS011;31720;52.638;9.216;2023-12-20T15:32:32;8.23;;;0.88;;
32032;SDS011;31720;52.638;9.216;2023-12-20T15:35:34;6.20;;;0.70;;
32032;SDS011;31720;52.638;9.216;2023-12-20T15:38:35;3.17;;;0.77;;
32032;SDS011;31720;52.638;9.216;2023-12-20T15:41:36;7.10;;;0.93;;
32032;SDS011;31720;52.638;9.216;2023-12-20T15:44:38;3.22;;;1.30;;
32032;SDS011;31720;52.638;9.216;2023-12-20T15:47:40;3.90;;;0.80;;
32032;SDS011;31720;52.638;9.216;2023-12-20T15:50:42;4.65;;;0.95;;
32032;SDS011;31720;52.638;9.216;2023-12-20T15:53:43;2.50;;;0.55;;
32032;SDS011;31720;52.638;9.216;2023-12-20T15:56:44;7.18;;;1.88;;
32032;SDS011;31720;52.638;9.216;2023-12-20T15:59:47;8.55;;;0.80;;
32032;SDS011;31720;52.638;9.216;2023-12-20T16:02:51;10.00;;;0.60;;
32032;SDS011;31720;52.638;9.216;2023-12-20T16:05:53;3.30;;;1.23;;
32032;SDS011;31720;52.638;9.216;2023-12-20T16:08:54;4.20;;;0.88;;
32032;SDS011;31720;52.638;9.216;2023-12-20T16:11:56;5.03;;;0.90;;
32032;SDS011;31720;52.638;9.216;2023-12-20T16:14:57;17.20;;;1.13;;
32032;SDS011;31720;52.638;9.216;2023-12-20T16:18:00;5.60;;;0.52;;
32032;SDS011;31720;52.638;9.216;2023-12-20T16:21:01;5.70;;;1.02;;
32032;SDS011;31720;52.638;9.216;2023-12-20T16:24:04;3.22;;;0.95;;
32032;SDS011;31720;52.638;9.216;2023-12-20T16:27:06;7.38;;;0.70;;
32032;SDS011;31720;52.638;9.216;2023-12-20T16:30:07;2.05;;;0.75;;
32032;SDS011;31720;52.638;9.216;2023-12-20T16:33:10;5.70;;;1.02;;
32032;SDS011;31720;52.638;9.216;2023-12-20T16:36:12;2.85;;;1.58;;
32032;SDS011;31720;52.638;9.216;2023-12-20T16:39:13;5.47;;;0.73;;
32032;SDS011;31720;52.638;9.216;2023-12-20T16:42:14;10.68;;;1.33;;
32032;SDS011;31720;52.638;9.216;2023-12-20T16:45:17;3.50;;;0.70;;
32032;SDS011;31720;52.638;9.216;2023-12-20T16:48:19;6.68;;;1.45;;
32032;SDS011;31720;52.638;9.216;2023-12-20T16:51:21;2.10;;;0.52;;
32032;SDS011;31720;52.638;9.216;2023-12-20T16:54:23;4.05;;;0.73;;
32032;SDS011;31720;52.638;9.216;2023-12-20T16:57:24;4.50;;;0.70;;
32032;SDS011;31720;52.638;9.216;2023-12-20T17:00:26;8.43;;;1.17;;
32032;SDS011;31720;52.638;9.216;2023-12-20T17:03:28;2.72;;;0.63;;
32032;SDS011;31720;52.638;9.216;2023-12-20T17:06:30;6.22;;;0.90;;
32032;SDS011;31720;52.638;9.216;2023-12-20T17:09:32;1.35;;;0.73;;
32032;SDS011;31720;52.638;9.216;2023-12-20T17:12:33;3.40;;;0.80;;
32032;SDS011;31720;52.638;9.216;2023-12-20T17:15:34;6.10;;;0.80;;
32032;SDS011;31720;52.638;9.216;2023-12-20T17:18:37;2.33;;;1.38;;
32032;SDS011;31720;52.638;9.216;2023-12-20T17:21:39;6.07;;;1.52;;
32032;SDS011;31720;52.638;9.216;2023-12-20T17:24:40;2.33;;;0.63;;
32032;SDS011;31720;52.638;9.216;2023-12-20T17:27:42;8.27;;;0.85;;
32032;SDS011;31720;52.638;9.216;2023-12-20T17:30:45;11.20;;;1.38;;
32032;SDS011;31720;52.638;9.216;2023-12-20T17:33:48;7.85;;;1.30;;
32032;SDS011;31720;52.638;9.216;2023-12-20T17:36:49;2.10;;;0.82;;
32032;SDS011;31720;52.638;9.216;2023-12-20T17:39:50;7.20;;;0.57;;
32032;SDS011;31720;52.638;9.216;2023-12-20T17:42:52;4.00;;;1.00;;
32032;SDS011;31720;52.638;9.216;2023-12-20T17:45:53;8.07;;;1.65;;
32032;SDS011;31720;52.638;9.216;2023-12-20T17:48:56;6.30;;;0.75;;
32032;SDS011;31720;52.638;9.216;2023-12-20T17:51:57;7.35;;;1.33;;
32032;SDS011;31720;52.638;9.216;2023-12-20T17:54:59;1.60;;;1.15;;
32032;SDS011;31720;52.638;9.216;2023-12-20T17:58:00;4.72;;;0.93;;
32032;SDS011;31720;52.638;9.216;2023-12-20T18:01:01;13.32;;;1.50;;
32032;SDS011;31720;52.638;9.216;2023-12-20T18:04:04;7.28;;;1.42;;
32032;SDS011;31720;52.638;9.216;2023-12-20T18:07:06;4.75;;;1.60;;
32032;SDS011;31720;52.638;9.216;2023-12-20T18:10:07;8.80;;;1.90;;
32032;SDS011;31720;52.638;9.216;2023-12-20T18:13:09;4.93;;;2.15;;